Time;durP1;ratioP1;P1;durP2;ratioP2;P2;SDS_P1;SDS_P2;PMS_P1;PMS_P2;Temp;Humidity;BMP_temperature;BMP_pressure;BME280_temperature;BME280_humidity;BME280_pressure;Samples;Min_cycle;Max_cycle;Signal;HPM_P1;HPM_P2
2023/05/23 00:00:37;;;;;;;6.75;2.45;;;;;;;19.04;52.77;98431.19;4938592;29;20047;-77
2023/05/23 00:03:03;;;;;;;6.60;2.80;;;;;;;19.03;52.73;98434.00;4921035;29;20082;-77
2023/05/23 00:05:28;;;;;;;3.90;2.63;;;;;;;18.96;52.96;98426.78;4937165;29;20411;-77
2023/05/23 00:07:54;;;;;;;4.72;2.45;;;;;;;18.92;53.11;98430.78;4938022;29;20480;-76
2023/05/23 00:10:21;;;;;;;5.22;2.50;;;;;;;18.92;53.11;98433.41;4936875;29;20078;-77
2023/05/23 00:12:46;;;;;;;5.07;2.53;;;;;;;18.89;53.16;98436.41;4936880;29;20040;-77
2023/05/23 00:15:12;;;;;;;4.30;2.55;;;;;;;18.87;53.20;98433.13;4921126;29;20046;-74
2023/05/23 00:17:38;;;;;;;6.43;2.40;;;;;;;18.82;53.02;98435.47;4936776;29;20035;-76
2023/05/23 00:20:05;;;;;;;4.22;2.20;;;;;;;18.81;53.10;98442.56;4939334;29;20051;-75
2023/05/23 00:22:30;;;;;;;7.93;2.78;;;;;;;18.76;53.40;98439.63;4923264;29;20133;-75
2023/05/23 00:24:56;;;;;;;6.57;2.40;;;;;;;18.74;53.53;98441.63;4924042;29;20494;-76
2023/05/23 00:27:22;;;;;;;5.32;2.70;;;;;;;18.67;53.78;98427.47;4956949;29;20410;-76
2023/05/23 00:29:48;;;;;;;3.70;2.50;;;;;;;18.66;53.91;98427.63;4923853;29;20043;-76
2023/05/23 00:32:13;;;;;;;5.03;2.40;;;;;;;18.62;54.31;98428.00;4923962;29;20118;-76
2023/05/23 00:34:39;;;;;;;4.38;2.53;;;;;;;18.58;54.22;98416.16;4939801;29;20038;-75
2023/05/23 00:37:04;;;;;;;5.80;2.70;;;;;;;18.56;54.27;98422.59;4939505;29;20538;-75
2023/05/23 00:39:30;;;;;;;5.03;2.63;;;;;;;18.54;54.36;98425.41;4923438;29;20070;-75
2023/05/23 00:41:56;;;;;;;4.95;2.60;;;;;;;18.53;54.52;98423.78;4956642;29;20039;-75
2023/05/23 00:44:22;;;;;;;6.65;2.30;;;;;;;18.55;54.69;98424.44;4956476;29;20126;-76
2023/05/23 00:46:53;;;;;;;6.07;2.53;;;;;;;18.56;54.37;98419.94;4923661;29;20106;-76
2023/05/23 00:49:19;;;;;;;5.03;2.85;;;;;;;18.51;54.49;98406.44;4924169;29;20474;-76
2023/05/23 00:51:45;;;;;;;3.47;2.50;;;;;;;18.54;54.23;98414.84;4923546;29;20071;-76
2023/05/23 00:54:10;;;;;;;8.45;2.97;;;;;;;18.53;54.26;98410.56;4939612;29;20043;-76
2023/05/23 00:56:36;;;;;;;5.13;2.40;;;;;;;18.53;54.25;98412.38;4908120;29;20043;-75
2023/05/23 00:59:01;;;;;;;7.20;2.78;;;;;;;18.50;54.39;98408.28;4923252;29;20126;-75
2023/05/23 01:01:27;;;;;;;4.30;2.30;;;;;;;18.47;54.60;98398.06;4923555;29;20435;-76
2023/05/23 01:03:52;;;;;;;9.05;2.85;;;;;;;18.43;54.57;98394.09;4956270;29;20042;-75
2023/05/23 01:06:18;;;;;;;5.05;2.63;;;;;;;18.40;54.79;98382.06;4938712;29;20035;-75
2023/05/23 01:08:44;;;;;;;4.57;2.70;;;;;;;18.40;54.78;98384.69;4923247;29;20483;-76
2023/05/23 01:11:14;;;;;;;10.93;2.92;;;;;;;18.40;54.78;98381.25;4939027;29;20098;-75
2023/05/23 01:13:42;;;;;;;5.35;2.80;;;;;;;18.40;54.74;98375.97;4908316;29;20039;-75
2023/05/23 01:16:13;;;;;;;6.60;2.90;;;;;;;18.42;54.84;98373.94;4923245;29;20043;-76
2023/05/23 01:18:47;;;;;;;4.82;2.70;;;;;;;18.40;54.67;98366.19;4922930;29;20031;-76
2023/05/23 01:21:16;;;;;;;5.65;3.00;;;;;;;18.46;54.77;98374.44;4922990;29;20055;-75
2023/05/23 01:24:01;;;;;;;3.90;2.45;;;;;;;18.47;54.45;98376.91;4939177;29;20065;-75
2023/05/23 01:26:47;;;;;;;7.05;2.90;;;;;;;18.45;54.43;98370.97;4956092;29;20117;-75
2023/05/23 01:29:46;;;;;;;7.65;2.83;;;;;;;18.49;54.22;98364.34;4923130;29;20043;-76
2023/05/23 01:32:12;;;;;;;8.38;3.22;;;;;;;18.48;54.53;98373.25;4939136;29;20503;-75
2023/05/23 01:34:39;;;;;;;8.93;3.15;;;;;;;18.53;54.19;98367.44;4923008;29;20062;-76
2023/05/23 01:37:10;;;;;;;3.22;2.60;;;;;;;18.54;54.14;98375.19;4922415;29;20042;-76
2023/05/23 01:39:37;;;;;;;7.55;3.20;;;;;;;18.53;54.09;98375.38;4921992;29;20049;-76
2023/05/23 01:42:02;;;;;;;8.35;2.90;;;;;;;18.53;53.91;98365.63;4922324;29;20126;-75
2023/05/23 01:44:28;;;;;;;6.40;2.58;;;;;;;18.57;53.78;98382.78;4922092;29;20436;-75
2023/05/23 01:46:53;;;;;;;4.18;3.13;;;;;;;18.58;53.68;98387.06;4937925;29;20035;-75
2023/05/23 01:49:19;;;;;;;7.80;3.17;;;;;;;18.60;53.61;98390.34;4937958;29;20609;-75
2023/05/23 01:51:44;;;;;;;6.45;3.25;;;;;;;18.58;53.56;98388.88;4921581;29;20047;-78
2023/05/23 01:54:10;;;;;;;8.77;3.50;;;;;;;18.59;53.50;98396.63;4937915;29;20547;-75
2023/05/23 01:56:36;;;;;;;8.02;3.88;;;;;;;18.53;53.30;98385.94;4922104;29;20038;-75
2023/05/23 01:59:02;;;;;;;10.45;3.67;;;;;;;18.59;53.29;98395.81;4922554;29;20035;-75
2023/05/23 02:01:28;;;;;;;7.05;4.07;;;;;;;18.57;53.41;98403.91;4938003;29;20093;-75
2023/05/23 02:03:53;;;;;;;11.02;4.40;;;;;;;18.55;53.38;98397.16;4921815;29;20483;-77
2023/05/23 02:06:19;;;;;;;8.25;4.60;;;;;;;18.56;53.49;98402.25;4937969;29;20047;-75
2023/05/23 02:08:44;;;;;;;8.27;4.47;;;;;;;18.55;53.68;98398.00;4937593;29;20110;-75
2023/05/23 02:11:10;;;;;;;5.70;4.25;;;;;;;18.53;53.73;98399.16;4937269;29;20043;-78
2023/05/23 02:13:35;;;;;;;10.88;5.00;;;;;;;18.48;53.73;98393.59;4938142;28;20039;-77
2023/05/23 02:16:01;;;;;;;5.55;4.50;;;;;;;18.49;53.80;98406.63;4921832;29;20168;-77
2023/05/23 02:18:28;;;;;;;12.00;5.00;;;;;;;18.48;53.93;98402.31;4921945;29;20046;-77
2023/05/23 02:20:55;;;;;;;10.57;4.93;;;;;;;18.46;54.04;98408.81;4937728;29;20442;-77
2023/05/23 02:23:21;;;;;;;6.88;4.55;;;;;;;18.42;54.04;98403.88;4954839;29;20134;-77
2023/05/23 02:25:46;;;;;;;8.23;4.75;;;;;;;18.45;54.21;98410.59;4921943;29;20046;-77
2023/05/23 02:28:12;;;;;;;7.07;4.50;;;;;;;18.42;54.44;98405.66;4953028;29;20126;-77
2023/05/23 02:30:38;;;;;;;7.43;4.35;;;;;;;18.39;54.49;98404.22;4954562;29;20046;-77
2023/05/23 02:33:05;;;;;;;10.50;4.78;;;;;;;18.34;54.46;98400.44;4954499;29;20036;-77
2023/05/23 02:35:30;;;;;;;5.90;4.28;;;;;;;18.35;54.82;98408.19;4921514;29;20063;-77
2023/05/23 02:37:56;;;;;;;6.00;4.20;;;;;;;18.30;54.82;98401.81;4954844;29;20070;-77
2023/05/23 02:40:21;;;;;;;6.13;4.18;;;;;;;18.30;55.02;98407.91;4937378;29;20043;-76
2023/05/23 02:42:47;;;;;;;8.65;4.45;;;;;;;18.29;55.00;98405.44;4921684;29;20034;-76
2023/05/23 02:45:12;;;;;;;8.82;4.57;;;;;;;18.23;55.15;98405.16;4954504;29;20498;-77
2023/05/23 02:47:38;;;;;;;10.13;4.45;;;;;;;18.23;55.34;98405.16;4937392;29;20189;-77
2023/05/23 02:50:03;;;;;;;11.65;4.43;;;;;;;18.19;55.09;98397.75;4954337;29;20170;-76
2023/05/23 02:52:29;;;;;;;5.47;3.83;;;;;;;18.18;55.43;98404.00;4920685;29;20069;-76
2023/05/23 02:54:54;;;;;;;7.20;4.28;;;;;;;18.20;55.49;98404.66;4937034;29;20067;-77
2023/05/23 02:57:20;;;;;;;7.47;3.78;;;;;;;18.20;55.51;98408.13;4954186;28;20094;-76
2023/05/23 02:59:45;;;;;;;7.78;3.95;;;;;;;18.20;55.63;98405.50;4954416;29;20047;-77
2023/05/23 03:02:11;;;;;;;7.60;3.65;;;;;;;18.26;55.33;98404.78;4936818;28;20039;-76
2023/05/23 03:04:37;;;;;;;8.63;4.07;;;;;;;18.37;55.20;98394.81;4920991;29;20035;-76
2023/05/23 03:07:02;;;;;;;10.00;3.92;;;;;;;18.63;54.60;98391.81;4920636;29;20051;-77
2023/05/23 03:09:28;;;;;;;9.48;3.65;;;;;;;18.73;54.30;98410.09;4952533;28;20415;-77
2023/05/23 03:11:53;;;;;;;7.07;3.58;;;;;;;18.60;54.60;98392.19;4952782;28;20562;-77
2023/05/23 03:14:19;;;;;;;5.78;3.80;;;;;;;18.59;54.50;98391.34;4936745;29;20139;-77
2023/05/23 03:16:44;;;;;;;7.45;3.83;;;;;;;18.63;54.40;98395.28;4936885;29;20396;-77
2023/05/23 03:19:10;;;;;;;4.15;3.35;;;;;;;18.61;54.64;98404.38;4936809;29;20055;-76
2023/05/23 03:21:35;;;;;;;8.77;3.53;;;;;;;18.83;54.09;98399.25;4952072;29;20066;-77
2023/05/23 03:24:01;;;;;;;9.10;3.78;;;;;;;19.05;53.30;98408.19;4953928;28;20090;-77
2023/05/23 03:26:27;;;;;;;11.57;3.92;;;;;;;19.66;51.98;98392.19;4953539;29;20039;-77
2023/05/23 03:28:53;;;;;;;5.30;3.50;;;;;;;20.21;50.62;98401.41;4936833;29;20110;-77
2023/05/23 03:31:18;;;;;;;12.60;3.80;;;;;;;20.78;49.28;98397.09;4936397;29;20388;-77
2023/05/23 03:33:44;;;;;;;12.88;3.67;;;;;;;21.29;47.98;98404.00;4936771;29;20035;-77
2023/05/23 03:36:09;;;;;;;4.75;3.10;;;;;;;21.72;46.90;98402.25;4953646;29;20051;-77
2023/05/23 03:38:35;;;;;;;7.88;3.30;;;;;;;22.27;45.82;98399.59;4920669;29;20039;-77
2023/05/23 03:41:00;;;;;;;8.15;3.63;;;;;;;22.76;44.56;98406.44;4921029;29;20130;-75
2023/05/23 03:43:26;;;;;;;8.32;3.90;;;;;;;23.26;43.42;98409.53;4936722;29;20032;-75
2023/05/23 03:45:51;;;;;;;5.95;3.40;;;;;;;23.77;42.19;98396.50;4936071;29;20043;-73
2023/05/23 03:48:17;;;;;;;11.07;3.33;;;;;;;24.35;40.80;98408.94;4920750;29;20091;-74
2023/05/23 03:50:42;;;;;;;8.00;3.63;;;;;;;24.91;39.82;98416.19;4920210;29;20435;-72
2023/05/23 03:53:08;;;;;;;7.18;3.00;;;;;;;25.57;43.00;98410.47;4935732;29;20035;-68
2023/05/23 03:55:33;;;;;;;6.78;2.70;;;;;;;26.38;41.60;98418.34;4936640;29;20050;-69
2023/05/23 03:57:59;;;;;;;9.95;3.10;;;;;;;27.04;39.72;98414.69;4953920;29;20479;-69
2023/05/23 04:00:25;;;;;;;9.63;3.03;;;;;;;27.66;38.08;98418.78;4920314;29;20054;-70
2023/05/23 04:02:50;;;;;;;10.25;3.22;;;;;;;28.27;36.78;98418.38;4920159;29;20035;-68
2023/05/23 04:05:16;;;;;;;6.47;3.42;;;;;;;28.85;35.18;98436.06;4936263;29;20466;-73
2023/05/23 04:07:42;;;;;;;7.90;3.28;;;;;;;29.22;33.48;98441.00;4904648;29;20139;-71
2023/05/23 04:10:08;;;;;;;8.45;3.47;;;;;;;29.53;32.30;98440.63;4919675;29;20043;-67
2023/05/23 04:12:34;;;;;;;15.43;3.10;;;;;;;29.73;30.65;98424.75;4936382;29;20035;-72
2023/05/23 04:14:59;;;;;;;11.13;3.20;;;;;;;30.14;30.70;98437.88;4938121;29;20140;-75
2023/05/23 04:17:29;;;;;;;6.88;3.30;;;;;;;30.31;29.66;98444.03;4923875;29;20035;-71
2023/05/23 04:19:55;;;;;;;9.15;3.40;;;;;;;30.64;29.09;98452.16;4923536;29;20051;-73
2023/05/23 04:22:20;;;;;;;10.10;3.67;;;;;;;30.32;29.28;98447.53;4924018;29;20159;-70
2023/05/23 04:24:46;;;;;;;5.90;3.28;;;;;;;29.54;30.72;98453.81;4956458;28;20044;-69
2023/05/23 04:27:12;;;;;;;13.05;3.15;;;;;;;28.63;32.57;98445.91;4939434;29;20046;-70
2023/05/23 04:29:38;;;;;;;5.03;3.22;;;;;;;28.01;33.23;98460.00;4924060;29;20035;-71
2023/05/23 04:32:05;;;;;;;16.83;3.78;;;;;;;27.75;34.94;98459.44;4923889;29;20042;-71
2023/05/23 04:34:32;;;;;;;27.02;4.50;;;;;;;27.95;34.20;98461.75;4956619;28;20039;-70
2023/05/23 04:37:01;;;;;;;16.38;3.70;;;;;;;28.96;33.41;98469.28;4923851;29;20470;-71
2023/05/23 04:39:27;;;;;;;15.25;3.67;;;;;;;27.68;34.81;98464.13;4924082;29;20039;-70
2023/05/23 04:41:53;;;;;;;13.05;3.58;;;;;;;27.08;35.98;98468.63;4923335;29;20554;-71
2023/05/23 04:44:19;;;;;;;11.70;3.50;;;;;;;26.57;36.78;98464.59;4923638;29;20083;-70
2023/05/23 04:46:44;;;;;;;9.43;3.58;;;;;;;26.22;38.01;98473.31;4922942;29;20493;-70
2023/05/23 04:49:11;;;;;;;7.55;2.75;;;;;;;25.88;38.22;98468.31;4939155;29;20062;-69
2023/05/23 04:51:37;;;;;;;5.75;3.13;;;;;;;25.45;39.17;98469.19;4923527;29;20036;-69
2023/05/23 04:54:03;;;;;;;23.63;4.70;;;;;;;24.97;41.29;98473.25;4939406;28;20031;-74
2023/05/23 04:56:28;;;;;;;16.60;3.75;;;;;;;24.82;41.67;98473.56;4923444;29;20047;-70
2023/05/23 04:58:54;;;;;;;15.60;3.83;;;;;;;24.68;41.89;98480.81;4908023;29;20517;-72
2023/05/23 05:01:23;;;;;;;12.65;3.40;;;;;;;24.44;42.75;98486.91;4907124;29;20110;-73
2023/05/23 05:03:49;;;;;;;7.60;3.33;;;;;;;24.25;43.30;98489.44;4923883;29;20031;-74
2023/05/23 05:06:16;;;;;;;8.93;4.20;;;;;;;24.09;43.71;98498.72;4923061;29;20055;-70
2023/05/23 05:08:41;;;;;;;15.10;4.65;;;;;;;23.99;45.12;98493.84;4923401;29;20035;-76
2023/05/23 05:11:08;;;;;;;16.88;4.90;;;;;;;23.87;45.53;98492.03;4923359;29;20046;-73
2023/05/23 05:13:33;;;;;;;31.58;5.07;;;;;;;23.75;45.87;98494.47;4938909;29;20035;-74
2023/05/23 05:15:59;;;;;;;14.05;4.38;;;;;;;23.70;45.92;98496.94;4956060;28;20066;-75
2023/05/23 05:18:25;;;;;;;17.52;5.22;;;;;;;23.63;46.67;98504.97;4922744;29;20118;-77
2023/05/23 05:20:51;;;;;;;18.83;4.63;;;;;;;23.56;47.19;98499.66;4955917;29;20059;-76
2023/05/23 05:23:16;;;;;;;11.38;4.70;;;;;;;23.49;47.52;98496.97;4922613;29;20036;-76
2023/05/23 05:25:42;;;;;;;13.88;4.90;;;;;;;23.46;47.67;98497.38;4906277;29;20567;-79
2023/05/23 05:28:07;;;;;;;10.73;4.78;;;;;;;23.49;47.50;98506.81;4922497;29;20098;-77
2023/05/23 05:30:34;;;;;;;9.60;4.43;;;;;;;23.43;47.47;98505.78;4922463;29;20043;-78
2023/05/23 05:33:03;;;;;;;11.73;4.60;;;;;;;23.46;47.54;98507.22;4906760;29;20042;-77
2023/05/23 05:35:31;;;;;;;15.45;5.10;;;;;;;23.46;47.24;98513.34;4938452;28;20477;-75
2023/05/23 05:37:57;;;;;;;;;;;;;;;23.47;47.24;98520.34;4929475;29;20491;-74
2023/05/23 05:40:22;;;;;;;7.10;4.53;;;;;;;23.44;47.30;98520.75;4936260;29;19911;-74
2023/05/23 05:42:48;;;;;;;13.25;5.18;;;;;;;23.46;47.48;98526.69;4903430;29;20139;-84
2023/05/23 05:45:13;;;;;;;12.13;5.40;;;;;;;23.47;47.45;98527.53;4904549;29;20039;-76
2023/05/23 05:47:39;;;;;;;12.07;4.97;;;;;;;23.48;47.51;98527.31;4919361;29;20551;-75
2023/05/23 05:50:06;;;;;;;12.40;5.28;;;;;;;23.49;47.21;98526.28;4903109;29;20040;-77
2023/05/23 05:52:33;;;;;;;8.77;4.77;;;;;;;23.53;47.09;98525.84;4936334;29;20032;-77
2023/05/23 05:54:59;;;;;;;16.00;5.32;;;;;;;23.59;46.27;98528.50;4903895;29;20850;-81
2023/05/23 05:57:24;;;;;;;10.05;4.85;;;;;;;23.66;46.28;98534.66;4890416;29;20122;-77
2023/05/23 05:59:50;;;;;;;8.90;4.40;;;;;;;23.72;46.06;98527.69;4942550;29;20070;-77
2023/05/23 06:02:15;;;;;;;10.73;4.72;;;;;;;23.77;45.82;98533.22;4905667;29;20050;-75
2023/05/23 06:04:41;;;;;;;13.05;4.53;;;;;;;23.82;45.69;98525.41;4918550;29;20046;-77
2023/05/23 06:07:06;;;;;;;15.20;4.70;;;;;;;23.82;45.63;98520.09;4918011;29;20130;-77
2023/05/23 06:09:32;;;;;;;7.32;4.20;;;;;;;23.87;45.55;98514.16;4902972;29;20138;-79
2023/05/23 06:11:58;;;;;;;5.88;4.15;;;;;;;23.87;45.47;98514.16;4903361;29;20084;-77
2023/05/23 06:14:24;;;;;;;8.18;4.50;;;;;;;23.93;45.72;98518.66;4918742;29;20118;-76
2023/05/23 06:16:49;;;;;;;11.07;4.28;;;;;;;24.00;46.03;98523.97;4902974;29;20488;-77
2023/05/23 06:19:15;;;;;;;10.55;4.70;;;;;;;24.02;46.22;98520.09;4902402;29;20567;-75
2023/05/23 06:21:40;;;;;;;11.60;4.78;;;;;;;24.05;45.92;98507.34;4918485;29;20193;-75
2023/05/23 06:24:06;;;;;;;8.88;3.85;;;;;;;24.05;46.21;98507.34;4918376;29;20388;-76
2023/05/23 06:26:32;;;;;;;10.20;4.35;;;;;;;24.12;46.17;98500.97;4934059;29;20110;-76
2023/05/23 06:28:57;;;;;;;10.10;4.25;;;;;;;24.22;45.97;98507.72;4918502;29;20032;-75
2023/05/23 06:31:23;;;;;;;9.00;3.97;;;;;;;24.30;45.84;98502.94;4918182;29;20054;-73
2023/05/23 06:33:48;;;;;;;10.57;3.72;;;;;;;24.43;45.89;98495.91;4935216;29;20083;-73
2023/05/23 06:36:14;;;;;;;9.30;3.65;;;;;;;24.62;45.45;98492.38;4918853;29;20054;-73
2023/05/23 06:38:39;;;;;;;5.82;3.50;;;;;;;24.84;44.37;98498.19;4934883;29;20043;-72
2023/05/23 06:41:06;;;;;;;9.63;3.45;;;;;;;25.06;43.75;98489.81;4918087;29;20049;-73
2023/05/23 06:43:31;;;;;;;10.05;3.60;;;;;;;25.35;43.43;98503.59;4935321;29;20483;-72
2023/05/23 06:45:56;;;;;;;5.50;3.22;;;;;;;25.44;42.85;98492.41;4918119;29;20051;-72
2023/05/23 06:48:22;;;;;;;5.68;3.30;;;;;;;25.56;42.91;98497.84;4933550;29;20044;-72
2023/05/23 06:50:48;;;;;;;7.47;3.28;;;;;;;25.63;42.53;98501.28;4935325;29;20122;-73
2023/05/23 06:53:15;;;;;;;9.10;3.38;;;;;;;25.79;42.32;98496.38;4917943;29;20063;-69
2023/05/23 06:55:40;;;;;;;10.53;3.37;;;;;;;25.90;42.10;98490.31;4935110;29;20036;-74
2023/05/23 06:58:06;;;;;;;8.38;3.22;;;;;;;25.98;41.99;98490.06;4917977;29;20095;-73
2023/05/23 07:00:31;;;;;;;8.00;3.35;;;;;;;26.12;41.95;98490.69;4917917;29;20507;-72
2023/05/23 07:03:02;;;;;;;8.07;3.33;;;;;;;26.28;42.13;98493.81;4901425;29;20047;-76
2023/05/23 07:05:27;;;;;;;10.00;3.83;;;;;;;26.29;42.07;98474.06;4902730;29;20043;-72
2023/05/23 07:07:54;;;;;;;7.03;3.53;;;;;;;26.49;41.47;98485.31;4920871;29;20044;-86
2023/05/23 07:10:26;;;;;;;8.00;3.53;;;;;;;26.51;41.32;98477.06;4924583;29;20392;-75
2023/05/23 07:12:51;;;;;;;10.35;3.40;;;;;;;26.81;40.67;98487.78;4934828;29;20075;-73
2023/05/23 07:15:21;;;;;;;14.57;3.70;;;;;;;26.95;40.94;98482.22;4918720;29;20039;-82
2023/05/23 07:17:46;;;;;;;11.05;3.53;;;;;;;27.03;40.44;98480.03;4919584;29;20496;-81
2023/05/23 07:20:12;;;;;;;6.07;3.40;;;;;;;27.18;39.84;98474.19;4913010;29;20090;-80
2023/05/23 07:22:37;;;;;;;7.78;3.70;;;;;;;27.39;39.57;98477.41;4900652;29;20040;-73
2023/05/23 07:25:09;;;;;;;9.18;3.53;;;;;;;27.53;39.90;98484.19;4914853;29;20509;-81
2023/05/23 07:27:35;;;;;;;10.43;3.22;;;;;;;27.88;39.63;98482.50;4917264;29;20115;-82
2023/05/23 07:30:00;;;;;;;8.15;3.30;;;;;;;28.09;39.09;98479.22;4915626;29;20500;-81
2023/05/23 07:32:29;;;;;;;6.25;2.80;;;;;;;28.03;38.27;98469.44;4917512;29;20468;-85
2023/05/23 07:34:58;;;;;;;5.97;3.13;;;;;;;28.02;38.39;98475.03;4919828;29;20124;-85
2023/05/23 07:37:29;;;;;;;9.60;3.17;;;;;;;28.07;37.97;98467.09;4902924;29;20057;-82
2023/05/23 07:39:56;;;;;;;8.18;2.95;;;;;;;28.21;37.34;98473.00;4901246;29;20040;-82
2023/05/23 07:42:22;;;;;;;10.35;2.80;;;;;;;28.35;37.26;98479.72;4899656;29;20044;-80
2023/05/23 07:44:48;;;;;;;6.97;2.78;;;;;;;28.55;36.95;98478.50;4919157;29;20039;-75
2023/05/23 07:47:13;;;;;;;5.50;2.90;;;;;;;28.74;36.84;98482.63;4915543;29;20104;-80
2023/05/23 07:49:39;;;;;;;10.40;3.08;;;;;;;29.20;37.56;98471.84;4915335;29;20039;-72
2023/05/23 07:52:05;;;;;;;6.55;2.80;;;;;;;29.60;35.17;98473.50;4919026;29;20043;-75
2023/05/23 07:54:32;;;;;;;8.40;2.70;;;;;;;29.56;35.23;98475.88;4902239;29;20036;-72
2023/05/23 07:56:58;;;;;;;6.70;3.20;;;;;;;29.67;35.60;98476.84;4928995;29;20088;-71
2023/05/23 07:59:23;;;;;;;7.68;3.15;;;;;;;30.11;34.32;98471.50;4917716;29;20515;-78
2023/05/23 08:01:49;;;;;;;9.48;2.88;;;;;;;30.37;33.74;98471.78;4902375;29;20141;-77
2023/05/23 08:04:17;;;;;;;8.90;2.78;;;;;;;30.34;33.41;98475.00;4917847;29;20040;-76
2023/05/23 08:06:46;;;;;;;9.70;2.70;;;;;;;30.69;33.12;98456.78;4902616;29;20058;-77
2023/05/23 08:09:13;;;;;;;5.93;2.60;;;;;;;31.46;31.89;98463.59;4887331;29;20088;-75
2023/05/23 08:11:38;;;;;;;7.32;2.75;;;;;;;31.95;31.20;98459.03;4886503;29;20051;-74
2023/05/23 08:14:04;;;;;;;12.30;3.35;;;;;;;31.92;32.31;98458.47;4920375;29;20047;-70
2023/05/23 08:16:29;;;;;;;11.75;2.80;;;;;;;32.04;31.70;98457.44;4936258;29;20043;-71
2023/05/23 08:18:55;;;;;;;16.95;3.05;;;;;;;31.93;31.42;98459.31;4936402;29;20036;-73
2023/05/23 08:21:20;;;;;;;17.00;3.35;;;;;;;32.15;31.02;98455.63;4907004;29;20048;-70
2023/05/23 08:23:46;;;;;;;10.15;2.88;;;;;;;32.47;30.53;98458.16;4917313;29;20036;-71
2023/05/23 08:26:11;;;;;;;8.30;2.90;;;;;;;32.65;30.10;98454.13;4918489;29;20059;-72
2023/05/23 08:28:37;;;;;;;14.15;2.80;;;;;;;32.41;30.54;98459.22;4918626;29;20040;-73
2023/05/23 08:31:02;;;;;;;15.60;2.72;;;;;;;32.10;30.76;98451.00;4902145;29;20075;-73
2023/05/23 08:33:28;;;;;;;12.05;3.22;;;;;;;32.36;30.04;98456.50;4918488;29;20032;-73
2023/05/23 08:35:53;;;;;;;13.32;3.10;;;;;;;32.19;30.68;98462.13;4901577;29;20067;-73
2023/05/23 08:38:20;;;;;;;18.38;3.20;;;;;;;32.04;31.45;98457.44;4917217;29;20076;-73
2023/05/23 08:40:49;;;;;;;18.50;3.40;;;;;;;32.21;31.50;98463.50;4917296;29;20040;-72
2023/05/23 08:43:15;;;;;;;14.27;3.13;;;;;;;31.77;32.23;98447.63;4917269;29;20035;-73
2023/05/23 08:45:41;;;;;;;15.60;3.15;;;;;;;31.43;33.04;98450.66;4918341;29;20040;-72
2023/05/23 08:48:08;;;;;;;9.27;3.22;;;;;;;31.23;33.48;98456.72;4916962;29;20492;-75
2023/05/23 08:50:35;;;;;;;26.58;3.60;;;;;;;31.05;34.39;98449.03;4916679;29;20131;-80
2023/05/23 08:53:01;;;;;;;;;;;;;;;30.88;34.22;98454.53;4902466;29;20071;-78
2023/05/23 08:55:28;;;;;;;12.05;3.53;;;;;;;30.64;34.95;98468.34;4901365;29;19954;-80
2023/05/23 08:57:54;;;;;;;13.30;3.38;;;;;;;30.43;35.38;98465.44;4918360;29;20059;-79
2023/05/23 09:00:21;;;;;;;15.32;3.60;;;;;;;30.29;35.17;98453.41;4917804;29;20552;-83
2023/05/23 09:02:47;;;;;;;11.68;3.25;;;;;;;30.19;35.01;98466.75;4902177;29;20051;-84
2023/05/23 09:05:13;;;;;;;13.07;2.92;;;;;;;30.17;34.87;98460.81;4902626;29;20223;-86
2023/05/23 09:07:39;;;;;;;6.25;2.65;;;;;;;30.20;34.40;98463.00;4918665;29;20528;-83
2023/05/23 09:10:08;;;;;;;17.90;2.70;;;;;;;30.22;34.71;98460.84;4905899;29;20036;-86
2023/05/23 09:12:36;;;;;;;6.95;2.30;;;;;;;30.16;33.84;98462.69;4888040;29;20127;-82
2023/05/23 09:15:05;;;;;;;6.10;2.35;;;;;;;30.14;34.10;98459.41;4904390;29;20067;-88
2023/05/23 09:17:32;;;;;;;7.47;2.70;;;;;;;29.92;34.05;98459.41;4903384;29;20044;-84
2023/05/23 09:19:58;;;;;;;8.10;2.40;;;;;;;29.85;34.15;98453.44;4919962;29;20055;-84
2023/05/23 09:22:25;;;;;;;5.40;2.50;;;;;;;29.80;34.10;98466.81;4921332;29;20031;-82
2023/05/23 09:24:51;;;;;;;7.13;2.30;;;;;;;29.63;34.29;98462.25;4937871;29;20036;-82
2023/05/23 09:27:17;;;;;;;5.80;2.30;;;;;;;29.50;33.63;98466.13;4920520;29;20123;-82
2023/05/23 09:29:42;;;;;;;5.80;2.10;;;;;;;29.30;33.54;98453.19;4921716;29;20067;-84
2023/05/23 09:32:15;;;;;;;8.65;2.40;;;;;;;29.09;33.67;98473.53;4905528;29;20043;-83
2023/05/23 09:34:56;;;;;;;7.72;2.13;;;;;;;28.93;33.90;98466.28;4905756;29;20474;-83
2023/05/23 09:37:44;;;;;;;6.82;2.00;;;;;;;28.76;33.57;98466.25;4905229;29;20051;-84
2023/05/23 09:40:11;;;;;;;3.83;2.13;;;;;;;28.64;33.34;98469.03;4921788;29;20036;-82
2023/05/23 09:42:44;;;;;;;5.18;1.98;;;;;;;28.50;33.57;98458.53;4920819;29;20383;-82
2023/05/23 09:45:13;;;;;;;5.22;2.08;;;;;;;28.33;33.40;98466.53;4904396;29;20086;-83
2023/05/23 09:47:48;;;;;;;4.80;2.05;;;;;;;28.15;33.66;98462.19;4905048;29;20475;-83
2023/05/23 09:50:13;;;;;;;8.20;2.10;;;;;;;28.09;33.70;98468.50;4921046;29;20068;-81
2023/05/23 09:52:39;;;;;;;5.30;2.20;;;;;;;27.92;33.94;98472.94;4921162;29;20054;-83
2023/05/23 09:55:05;;;;;;;4.10;2.22;;;;;;;27.96;33.68;98466.09;4904816;29;20125;-82
2023/05/23 09:57:31;;;;;;;9.60;2.40;;;;;;;27.94;33.73;98458.28;4905009;29;20048;-87
2023/05/23 09:59:57;;;;;;;9.77;2.20;;;;;;;27.81;34.32;98463.84;4904528;29;20036;-84
2023/05/23 10:02:52;;;;;;;8.27;2.72;;;;;;;27.67;34.45;98452.56;4920166;29;20052;-84
2023/05/23 10:05:45;;;;;;;11.43;3.17;;;;;;;27.55;34.23;98466.00;4914915;29;20455;-81
2023/05/23 10:08:42;;;;;;;8.23;3.13;;;;;;;27.70;34.20;98452.09;4882120;29;20048;-83
2023/05/23 10:11:13;;;;;;;10.38;3.50;;;;;;;28.04;33.47;98456.81;4787122;30;20043;-83
2023/05/23 10:13:45;;;;;;;9.73;3.75;;;;;;;28.11;33.37;98444.09;4786345;29;20047;-81
2023/05/23 10:16:16;;;;;;;9.85;3.65;;;;;;;28.19;33.58;98438.34;4787379;29;20113;-82
2023/05/23 10:18:45;;;;;;;11.43;3.42;;;;;;;28.42;33.06;98442.81;4786814;29;20116;-82
2023/05/23 10:21:11;;;;;;;6.57;3.10;;;;;;;28.58;32.84;98430.50;4786050;29;20597;-81
2023/05/23 10:23:37;;;;;;;10.23;2.90;;;;;;;28.77;32.61;98441.03;4770854;30;20142;-83
2023/05/23 10:26:04;;;;;;;6.75;2.80;;;;;;;28.97;32.35;98438.69;4771246;30;20148;-82
2023/05/23 10:28:31;;;;;;;4.00;2.42;;;;;;;29.19;31.83;98433.41;4785858;29;20039;-82
2023/05/23 10:30:57;;;;;;;6.57;2.33;;;;;;;29.41;32.04;98438.84;4771059;30;20047;-82
2023/05/23 10:33:22;;;;;;;8.63;2.20;;;;;;;29.38;32.11;98436.66;4785406;29;20534;-82
2023/05/23 10:36:03;;;;;;;5.50;2.35;;;;;;;29.44;31.44;98440.22;4785645;29;20078;-81
2023/05/23 10:38:33;;;;;;;7.80;2.33;;;;;;;29.43;31.10;98438.59;4770932;30;20050;-82
2023/05/23 10:41:07;;;;;;;4.93;2.17;;;;;;;29.38;31.12;98427.75;4785667;30;20088;-81
2023/05/23 10:43:43;;;;;;;7.47;2.22;;;;;;;29.42;31.58;98434.28;4785648;30;20061;-81
2023/05/23 10:46:12;;;;;;;10.05;2.35;;;;;;;29.34;31.19;98446.25;4792005;29;20047;-83
2023/05/23 10:48:42;;;;;;;6.32;2.03;;;;;;;29.15;31.28;98437.63;4901910;29;20508;-80
2023/05/23 10:51:08;;;;;;;3.88;1.80;;;;;;;29.10;31.26;98436.72;4918398;29;20039;-81
2023/05/23 10:53:36;;;;;;;6.75;2.53;;;;;;;28.97;31.81;98449.44;4918631;29;20078;-83
2023/05/23 10:56:07;;;;;;;2.97;1.92;;;;;;;28.84;32.07;98453.25;4903146;29;20087;-81
2023/05/23 10:58:33;;;;;;;7.68;1.92;;;;;;;28.65;32.51;98451.84;4919506;29;20463;-81
2023/05/23 11:01:00;;;;;;;6.30;2.22;;;;;;;28.61;32.58;98448.03;4918587;29;20486;-80
2023/05/23 11:03:44;;;;;;;3.35;1.90;;;;;;;28.54;32.75;98452.69;4918192;29;20047;-81
2023/05/23 11:06:35;;;;;;;2.80;1.83;;;;;;;28.45;33.00;98447.72;4917908;29;20562;-83
2023/05/23 11:09:17;;;;;;;6.03;3.03;;;;;;;28.36;32.86;98438.41;4905048;29;20040;-82
2023/05/23 11:12:01;;;;;;;8.57;5.32;;;;;;;28.22;33.46;98435.19;4918933;29;20411;-82
2023/05/23 11:14:39;;;;;;;7.43;4.05;;;;;;;28.11;33.53;98425.31;4902714;29;20076;-82
2023/05/23 11:17:11;;;;;;;6.90;3.80;;;;;;;28.01;33.28;98438.56;4919542;29;20420;-82
2023/05/23 11:19:36;;;;;;;6.80;3.53;;;;;;;27.98;33.48;98437.16;4918490;29;20051;-81
2023/05/23 11:22:02;;;;;;;11.80;3.65;;;;;;;27.88;33.63;98444.94;4918157;29;20507;-80
2023/05/23 11:24:46;;;;;;;8.60;3.55;;;;;;;27.85;33.67;98445.41;4903706;29;20048;-81
2023/05/23 11:27:11;;;;;;;6.40;3.70;;;;;;;27.78;34.01;98440.19;4922021;29;20099;-81
2023/05/23 11:29:37;;;;;;;7.55;3.70;;;;;;;27.83;33.73;98444.84;4906492;29;20473;-83
2023/05/23 11:32:12;;;;;;;6.40;3.10;;;;;;;27.84;34.06;98441.94;4906615;29;20491;-85